Time;durP1;ratioP1;P1;durP2;ratioP2;P2;SDS_P1;SDS_P2;PMS_P1;PMS_P2;Temp;Humidity;BMP_temperature;BMP_pressure;BME280_temperature;BME280_humidity;BME280_pressure;Samples;Min_cycle;Max_cycle;Signal;HPM_P1;HPM_P2
2022/01/11 00:00:15;;;;;;;0.00;0.00;;;-0.60;99.90;;;;;;5039912;28;20037;-60
2022/01/11 00:02:44;;;;;;;0.00;0.00;;;-0.60;99.90;;;;;;5022209;28;20036;-60
2022/01/11 00:05:20;;;;;;;0.00;0.00;;;-0.50;99.90;;;;;;5022102;28;20056;-62
2022/01/11 00:07:46;;;;;;;0.00;0.00;;;-0.50;99.90;;;;;;5021900;28;20076;-62
2022/01/11 00:10:20;;;;;;;0.00;0.00;;;-0.50;99.90;;;;;;5040599;28;20049;-61
2022/01/11 00:12:46;;;;;;;0.00;0.00;;;-0.50;99.90;;;;;;5040199;28;20053;-62
2022/01/11 00:15:11;;;;;;;0.00;0.00;;;-0.60;99.90;;;;;;5039872;28;20041;-62
2022/01/11 00:17:37;;;;;;;0.00;0.00;;;-0.60;99.90;;;;;;5040521;28;20453;-62
2022/01/11 00:20:04;;;;;;;0.00;0.00;;;-0.60;99.90;;;;;;5037834;28;20540;-63
2022/01/11 00:22:33;;;;;;;0.47;0.47;;;-0.60;99.90;;;;;;5040440;28;20056;-61
2022/01/11 00:25:01;;;;;;;0.00;0.00;;;-0.60;99.90;;;;;;5022149;28;20053;-62
2022/01/11 00:27:26;;;;;;;1.35;0.80;;;-0.60;99.90;;;;;;5041900;28;20068;-62
2022/01/11 00:29:55;;;;;;;1.05;1.02;;;-0.70;99.90;;;;;;5048985;28;20084;-62
2022/01/11 00:32:39;;;;;;;0.00;0.00;;;-0.80;99.90;;;;;;5021785;28;20051;-62
2022/01/11 00:35:10;;;;;;;0.00;0.00;;;-0.70;99.90;;;;;;5021230;28;20049;-62
2022/01/11 00:37:35;;;;;;;0.57;0.57;;;-0.70;99.90;;;;;;5040062;28;20080;-62
2022/01/11 00:40:04;;;;;;;0.10;0.10;;;-0.80;99.90;;;;;;5021798;28;20400;-61
2022/01/11 00:42:30;;;;;;;0.00;0.00;;;-0.80;99.90;;;;;;5040084;28;20088;-62
2022/01/11 00:44:55;;;;;;;0.00;0.00;;;-0.80;99.90;;;;;;5039954;28;20068;-62
2022/01/11 00:47:21;;;;;;;0.00;0.00;;;0.60;99.90;;;;;;5022031;28;20048;-62
2022/01/11 00:49:50;;;;;;;0.00;0.00;;;-0.80;99.90;;;;;;5038360;28;20041;-62
2022/01/11 00:52:15;;;;;;;0.00;0.00;;;-0.80;99.90;;;;;;5039839;28;20435;-62
2022/01/11 00:54:42;;;;;;;0.00;0.00;;;-0.80;99.90;;;;;;5039257;28;20143;-61
2022/01/11 00:57:08;;;;;;;0.00;0.00;;;-0.80;99.90;;;;;;5039629;28;20128;-62
2022/01/11 00:59:34;;;;;;;0.00;0.00;;;-0.80;99.90;;;;;;5039187;28;20032;-62
2022/01/11 01:02:00;;;;;;;0.10;0.10;;;-0.90;99.90;;;;;;5038610;28;20041;-62
2022/01/11 01:04:26;;;;;;;0.00;0.00;;;-0.90;99.90;;;;;;5039104;28;20454;-62
2022/01/11 01:06:52;;;;;;;0.00;0.00;;;-0.90;99.90;;;;;;5020936;28;20090;-61
2022/01/11 01:09:17;;;;;;;0.00;0.00;;;-0.90;99.90;;;;;;5039465;28;20065;-62
2022/01/11 01:11:44;;;;;;;0.00;0.00;;;-0.90;99.90;;;;;;5021497;28;20076;-62
2022/01/11 01:14:11;;;;;;;0.00;0.00;;;-0.90;99.90;;;;;;5039486;28;20162;-62
2022/01/11 01:16:37;;;;;;;0.10;0.10;;;-0.90;99.90;;;;;;5020990;28;20389;-62
2022/01/11 01:19:03;;;;;;;0.00;0.00;;;-0.90;99.90;;;;;;5039352;28;20041;-63
2022/01/11 01:21:36;;;;;;;0.00;0.00;;;-0.40;99.90;;;;;;5039144;28;20059;-62
2022/01/11 01:24:03;;;;;;;0.00;0.00;;;-1.00;99.90;;;;;;5021499;28;20134;-62
2022/01/11 01:26:31;;;;;;;0.00;0.00;;;-0.90;99.90;;;;;;5039502;28;20119;-61
2022/01/11 01:28:59;;;;;;;0.40;0.40;;;-1.00;99.90;;;;;;5049116;28;20044;-62
2022/01/11 01:31:25;;;;;;;0.00;0.00;;;-0.90;99.90;;;;;;5039645;28;20051;-61
2022/01/11 01:33:51;;;;;;;0.00;0.00;;;-0.90;99.90;;;;;;5020765;28;20488;-61
2022/01/11 01:36:17;;;;;;;0.00;0.00;;;-0.90;99.90;;;;;;5041125;28;20049;-61
2022/01/11 01:38:43;;;;;;;0.00;0.00;;;-0.90;99.90;;;;;;5043280;28;20544;-62
2022/01/11 01:41:19;;;;;;;0.00;0.00;;;-0.90;99.90;;;;;;5025404;28;20052;-61
2022/01/11 01:43:56;;;;;;;0.10;0.10;;;-1.20;99.90;;;;;;5025082;28;20053;-62
2022/01/11 01:46:22;;;;;;;0.13;0.13;;;-1.00;99.90;;;;;;5043113;28;20041;-62
2022/01/11 01:48:50;;;;;;;0.00;0.00;;;-0.90;99.90;;;;;;5043167;28;20094;-62
2022/01/11 01:51:16;;;;;;;0.00;0.00;;;-0.90;99.90;;;;;;5041681;28;20124;-62
2022/01/11 01:53:46;;;;;;;0.00;0.00;;;-1.00;99.90;;;;;;5042937;28;20051;-62
2022/01/11 01:56:12;;;;;;;0.00;0.00;;;-1.00;99.90;;;;;;5025486;28;20488;-62
2022/01/11 01:58:38;;;;;;;0.00;0.00;;;-0.90;99.90;;;;;;5042253;28;20048;-62
2022/01/11 02:01:05;;;;;;;0.00;0.00;;;-1.00;99.90;;;;;;5024963;28;20041;-62
2022/01/11 02:03:38;;;;;;;0.00;0.00;;;-0.90;99.90;;;;;;5025605;28;20072;-61
2022/01/11 02:06:08;;;;;;;0.10;0.10;;;-0.90;99.90;;;;;;5041505;28;20052;-61
2022/01/11 02:08:34;;;;;;;0.10;0.10;;;-0.90;99.90;;;;;;5042454;28;20080;-61
2022/01/11 02:11:00;;;;;;;0.20;0.20;;;-0.90;99.90;;;;;;5043034;28;20534;-61
2022/01/11 02:13:26;;;;;;;0.00;0.00;;;-0.90;99.90;;;;;;5038295;22;20498;-61
2022/01/11 02:15:52;;;;;;;0.00;0.00;;;-1.00;99.90;;;;;;5051268;28;20110;-61
2022/01/11 02:18:22;;;;;;;0.00;0.00;;;-1.00;99.90;;;;;;5042788;28;20060;-61
2022/01/11 02:20:50;;;;;;;0.00;0.00;;;-1.00;99.90;;;;;;5056075;28;20044;-61
2022/01/11 02:23:17;;;;;;;0.00;0.00;;;-1.00;99.90;;;;;;5082717;28;20056;-61
2022/01/11 02:25:43;;;;;;;0.00;0.00;;;-1.00;99.90;;;;;;5082349;28;20052;-61
2022/01/11 02:28:13;;;;;;;0.00;0.00;;;-1.00;99.90;;;;;;5066773;28;20703;-61
2022/01/11 02:30:40;;;;;;;0.00;0.00;;;-1.00;99.90;;;;;;5041164;28;20087;-61
2022/01/11 02:33:12;;;;;;;0.32;0.32;;;-1.00;99.90;;;;;;5023818;28;20052;-61
2022/01/11 02:35:38;;;;;;;0.00;0.00;;;-0.90;99.90;;;;;;5023812;28;20051;-61
2022/01/11 02:38:04;;;;;;;0.10;0.10;;;-1.30;99.90;;;;;;5042188;28;20479;-61
2022/01/11 02:40:29;;;;;;;0.00;0.00;;;-1.00;99.90;;;;;;5042757;28;20120;-60
2022/01/11 02:42:55;;;;;;;0.00;0.00;;;-1.10;99.90;;;;;;5023539;28;20308;-61
2022/01/11 02:45:22;;;;;;;0.10;0.10;;;-1.10;99.90;;;;;;5024637;28;20048;-61
2022/01/11 02:47:48;;;;;;;0.00;0.00;;;-1.00;99.90;;;;;;5041121;28;20102;-61
2022/01/11 02:50:16;;;;;;;1.27;0.70;;;-1.10;99.90;;;;;;5041337;28;20127;-61
2022/01/11 02:52:42;;;;;;;0.00;0.00;;;-1.10;99.90;;;;;;5041613;28;20041;-61
2022/01/11 02:55:13;;;;;;;0.00;0.00;;;-2.40;99.90;;;;;;5042263;28;20488;-61
2022/01/11 02:57:39;;;;;;;0.00;0.00;;;-1.20;99.90;;;;;;5023855;28;20520;-61
2022/01/11 03:00:11;;;;;;;0.00;0.00;;;-1.20;99.90;;;;;;5041056;28;20049;-61
2022/01/11 03:02:36;;;;;;;0.00;0.00;;;-1.10;99.90;;;;;;5041916;28;20041;-61
2022/01/11 03:05:10;;;;;;;0.10;0.10;;;-1.10;99.90;;;;;;5023487;28;20048;-61
2022/01/11 03:07:36;;;;;;;0.00;0.00;;;-1.00;99.90;;;;;;5023418;28;20044;-61
2022/01/11 03:10:42;;;;;;;0.10;0.10;;;-1.10;99.90;;;;;;5041870;28;20048;-60
2022/01/11 03:13:06;;;;;;;0.08;0.08;;;-1.10;99.90;;;;;;5019784;28;20495;-61
2022/01/11 03:15:32;;;;;;;0.00;0.00;;;-1.10;99.90;;;;;;5042225;28;20099;-61
2022/01/11 03:17:58;;;;;;;2.17;1.02;;;-1.10;99.90;;;;;;5023744;28;20056;-61
2022/01/11 03:20:23;;;;;;;0.00;0.00;;;-1.30;99.90;;;;;;5040817;28;20538;-61
2022/01/11 03:22:50;;;;;;;0.00;0.00;;;-1.20;99.90;;;;;;5040608;28;20566;-61
2022/01/11 03:25:17;;;;;;;0.00;0.00;;;-1.20;99.90;;;;;;5041464;28;20056;-61
2022/01/11 03:27:43;;;;;;;0.00;0.00;;;-1.20;99.90;;;;;;5027684;28;20041;-60
2022/01/11 03:30:11;;;;;;;0.00;0.00;;;-1.20;99.90;;;;;;5033888;28;20060;-61
2022/01/11 03:32:37;;;;;;;0.00;0.00;;;-1.20;99.90;;;;;;5023435;28;20463;-61
2022/01/11 03:35:05;;;;;;;0.05;0.05;;;-1.20;99.90;;;;;;5022514;28;20045;-62
2022/01/11 03:37:31;;;;;;;0.00;0.00;;;-1.20;99.90;;;;;;5023823;28;20407;-61
2022/01/11 03:39:57;;;;;;;0.00;0.00;;;-1.20;99.90;;;;;;5040451;28;20063;-60
2022/01/11 03:42:23;;;;;;;0.00;0.00;;;-1.20;99.90;;;;;;5023297;28;20052;-60
2022/01/11 03:44:50;;;;;;;0.00;0.00;;;-1.20;99.90;;;;;;5040857;28;20037;-61
2022/01/11 03:47:16;;;;;;;0.00;0.00;;;-1.20;99.90;;;;;;5006645;28;20052;-61
2022/01/11 03:49:42;;;;;;;0.00;0.00;;;-1.20;99.90;;;;;;5039148;28;20037;-61
2022/01/11 03:52:08;;;;;;;0.00;0.00;;;-1.20;99.90;;;;;;5040824;28;20068;-61
2022/01/11 03:54:50;;;;;;;0.00;0.00;;;-1.20;99.90;;;;;;5040830;28;20037;-61
2022/01/11 03:57:16;;;;;;;0.00;0.00;;;-1.10;99.90;;;;;;5040372;28;20041;-61
2022/01/11 03:59:41;;;;;;;0.00;0.00;;;-1.30;99.90;;;;;;5022455;28;20484;-61
2022/01/11 04:02:07;;;;;;;0.00;0.00;;;-1.10;99.90;;;;;;5040732;28;20045;-61
2022/01/11 04:04:33;;;;;;;0.00;0.00;;;-1.00;99.90;;;;;;5040046;28;20037;-61
2022/01/11 04:07:02;;;;;;;0.35;0.35;;;-1.30;99.90;;;;;;5040379;28;20036;-61
2022/01/11 04:09:28;;;;;;;0.00;0.00;;;-1.00;99.90;;;;;;5022937;28;20049;-61
2022/01/11 04:11:53;;;;;;;0.00;0.00;;;-1.00;99.90;;;;;;5040381;28;20400;-61
2022/01/11 04:14:19;;;;;;;0.00;0.00;;;-1.00;99.90;;;;;;5021873;28;20068;-61
2022/01/11 04:16:46;;;;;;;0.05;0.05;;;-1.00;99.90;;;;;;5022358;28;20384;-61
2022/01/11 04:19:12;;;;;;;0.00;0.00;;;-0.90;99.90;;;;;;5039681;28;20079;-60
2022/01/11 04:21:37;;;;;;;0.00;0.00;;;-0.90;99.90;;;;;;5023044;28;20505;-61
2022/01/11 04:24:03;;;;;;;0.00;0.00;;;-0.90;99.90;;;;;;5039222;28;20056;-63
2022/01/11 04:26:29;;;;;;;0.00;0.00;;;-0.90;99.90;;;;;;5022864;28;20089;-62
2022/01/11 04:28:55;;;;;;;0.00;0.00;;;-0.90;99.90;;;;;;5001599;28;20186;-61
2022/01/11 04:31:20;;;;;;;0.00;0.00;;;-0.90;99.90;;;;;;5022193;28;20148;-61
2022/01/11 04:33:46;;;;;;;0.00;0.00;;;-0.80;99.90;;;;;;5037625;28;20590;-61
2022/01/11 04:36:12;;;;;;;1.00;0.60;;;-0.80;99.90;;;;;;5038882;28;20033;-61
2022/01/11 04:38:39;;;;;;;0.00;0.00;;;-0.80;99.90;;;;;;5022185;28;20219;-61
2022/01/11 04:41:04;;;;;;;0.00;0.00;;;-0.80;99.90;;;;;;5022296;28;20100;-61
2022/01/11 04:43:33;;;;;;;0.00;0.00;;;-0.80;99.90;;;;;;5039890;28;20121;-61
2022/01/11 04:45:59;;;;;;;0.00;0.00;;;-0.90;99.90;;;;;;5038744;28;20047;-61
2022/01/11 04:48:25;;;;;;;0.00;0.00;;;-1.00;99.90;;;;;;5005317;28;20195;-61
2022/01/11 04:50:51;;;;;;;0.00;0.00;;;-0.80;99.90;;;;;;5021228;28;20095;-60
2022/01/11 04:53:17;;;;;;;0.00;0.00;;;-0.80;99.90;;;;;;5021206;28;20048;-61
2022/01/11 04:55:42;;;;;;;0.00;0.00;;;-0.80;99.90;;;;;;5039964;28;20033;-62
2022/01/11 04:58:08;;;;;;;0.00;0.00;;;-0.80;99.90;;;;;;5021947;28;20521;-61
2022/01/11 05:00:34;;;;;;;0.35;0.35;;;-0.80;99.90;;;;;;5038693;28;20071;-61
2022/01/11 05:03:00;;;;;;;0.00;0.00;;;-0.80;99.90;;;;;;5039154;28;20537;-61
2022/01/11 05:05:28;;;;;;;0.00;0.00;;;-0.90;99.90;;;;;;5039030;28;20084;-61
2022/01/11 05:07:54;;;;;;;0.00;0.00;;;-0.90;99.90;;;;;;5039493;28;20091;-61
2022/01/11 05:10:20;;;;;;;0.00;0.00;;;-0.90;99.90;;;;;;5038484;28;20045;-61
2022/01/11 05:12:45;;;;;;;0.00;0.00;;;-0.90;99.90;;;;;;5037955;28;20139;-60
2022/01/11 05:15:13;;;;;;;0.10;0.10;;;-0.90;99.90;;;;;;5039364;28;20060;-61
2022/01/11 05:17:40;;;;;;;0.00;0.00;;;-0.90;99.90;;;;;;5021949;28;20126;-61
2022/01/11 05:20:07;;;;;;;0.00;0.00;;;-1.00;99.90;;;;;;5038031;28;20461;-61
2022/01/11 05:22:33;;;;;;;0.10;0.10;;;-1.00;99.90;;;;;;5021773;28;20726;-62
2022/01/11 05:24:59;;;;;;;0.00;0.00;;;-1.10;99.90;;;;;;5039813;28;20049;-61
2022/01/11 05:27:27;;;;;;;0.00;0.00;;;-1.00;99.90;;;;;;5041402;28;20506;-61
2022/01/11 05:29:56;;;;;;;0.20;0.20;;;-1.00;99.90;;;;;;5047221;28;20060;-61
2022/01/11 05:32:22;;;;;;;0.00;0.00;;;-1.00;99.90;;;;;;5021044;28;20103;-61
2022/01/11 05:34:47;;;;;;;0.10;0.10;;;-1.00;99.90;;;;;;5038625;28;20044;-62
2022/01/11 05:37:14;;;;;;;0.00;0.00;;;;;;;;;;5021862;28;20056;-61
2022/01/11 05:39:39;;;;;;;0.00;0.00;;;-1.00;99.90;;;;;;5021085;28;20052;-61
2022/01/11 05:42:06;;;;;;;0.00;0.00;;;-1.00;99.90;;;;;;5021480;28;20420;-61
2022/01/11 05:44:36;;;;;;;0.28;0.28;;;-1.00;99.90;;;;;;5039658;28;20658;-60
2022/01/11 05:47:03;;;;;;;0.52;0.47;;;-1.10;99.90;;;;;;5038798;28;20055;-61
2022/01/11 05:49:29;;;;;;;0.00;0.00;;;-1.00;99.90;;;;;;5021183;28;20399;-61
2022/01/11 05:51:54;;;;;;;0.45;0.45;;;-1.00;99.90;;;;;;5039296;28;20056;-60
2022/01/11 05:54:20;;;;;;;0.00;0.00;;;-1.00;99.90;;;;;;5039250;28;20825;-61
2022/01/11 05:56:46;;;;;;;0.00;0.00;;;-1.00;99.90;;;;;;5038355;28;20067;-61
2022/01/11 05:59:11;;;;;;;0.00;0.00;;;-1.00;99.90;;;;;;5039331;28;20052;-61
2022/01/11 06:01:37;;;;;;;0.00;0.00;;;-1.00;99.90;;;;;;5038979;28;20479;-61
2022/01/11 06:04:02;;;;;;;0.00;0.00;;;-1.00;99.90;;;;;;5038133;28;20055;-62
2022/01/11 06:06:28;;;;;;;0.98;0.93;;;-1.20;99.90;;;;;;5020890;28;20052;-61
2022/01/11 06:08:54;;;;;;;0.35;0.35;;;-0.90;99.90;;;;;;5039111;28;20396;-63
2022/01/11 06:11:19;;;;;;;0.00;0.00;;;-0.90;99.90;;;;;;5021219;28;20049;-61
2022/01/11 06:13:45;;;;;;;0.00;0.00;;;-0.90;99.90;;;;;;5039078;28;20128;-61
2022/01/11 06:16:11;;;;;;;0.00;0.00;;;-0.90;99.90;;;;;;5020381;28;20059;-61
2022/01/11 06:18:37;;;;;;;0.00;0.00;;;-0.50;99.90;;;;;;5020705;28;20045;-61
2022/01/11 06:21:03;;;;;;;0.17;0.17;;;-0.90;99.90;;;;;;5039270;28;20041;-63
2022/01/11 06:23:29;;;;;;;0.00;0.00;;;-0.90;99.90;;;;;;5043275;28;20045;-61
2022/01/11 06:25:54;;;;;;;0.03;0.03;;;-0.90;99.90;;;;;;5042026;28;20491;-61
2022/01/11 06:28:20;;;;;;;0.00;0.00;;;-0.90;99.90;;;;;;5047862;28;20045;-63
2022/01/11 06:30:47;;;;;;;0.00;0.00;;;-0.90;99.90;;;;;;5048519;28;20514;-61
2022/01/11 06:33:14;;;;;;;1.00;1.00;;;-0.90;99.90;;;;;;5042351;28;20143;-63
2022/01/11 06:35:39;;;;;;;0.00;0.00;;;-0.90;99.90;;;;;;5041193;28;20126;-61
2022/01/11 06:38:05;;;;;;;0.43;0.43;;;-1.00;99.90;;;;;;5042215;28;20084;-61
2022/01/11 06:40:31;;;;;;;0.00;0.00;;;-0.90;99.90;;;;;;5025017;28;20049;-61
2022/01/11 06:42:56;;;;;;;0.00;0.00;;;-0.90;99.90;;;;;;5041954;28;20045;-60
2022/01/11 06:45:22;;;;;;;0.00;0.00;;;-1.00;99.90;;;;;;5041259;28;20057;-60
2022/01/11 06:47:48;;;;;;;1.10;1.00;;;-1.00;99.90;;;;;;5023796;28;20052;-60
2022/01/11 06:50:14;;;;;;;0.00;0.00;;;-1.00;99.90;;;;;;5041727;28;20040;-61
2022/01/11 06:52:40;;;;;;;0.00;0.00;;;-1.00;99.90;;;;;;5041915;28;20048;-61
2022/01/11 06:55:08;;;;;;;0.70;0.70;;;-0.40;99.90;;;;;;5041982;28;20103;-60
2022/01/11 06:57:33;;;;;;;0.00;0.00;;;-1.00;99.90;;;;;;5024528;28;20375;-60
2022/01/11 07:00:00;;;;;;;0.75;0.75;;;-1.00;99.90;;;;;;5024356;28;20041;-60
2022/01/11 07:02:25;;;;;;;0.00;0.00;;;-1.00;99.90;;;;;;5040724;28;20041;-60
2022/01/11 07:04:51;;;;;;;0.80;0.80;;;-1.00;99.90;;;;;;5040665;28;20478;-60
2022/01/11 07:07:18;;;;;;;2.10;0.77;;;-1.00;99.90;;;;;;5041714;28;20048;-60
2022/01/11 07:09:43;;;;;;;0.00;0.00;;;-1.00;99.90;;;;;;5041644;28;20130;-60
2022/01/11 07:12:09;;;;;;;0.00;0.00;;;-1.00;99.90;;;;;;5041185;28;20543;-60
2022/01/11 07:14:35;;;;;;;0.10;0.10;;;-1.00;99.90;;;;;;5041723;28;20470;-60
2022/01/11 07:17:01;;;;;;;0.00;0.00;;;-1.00;99.90;;;;;;5041832;28;20044;-60
2022/01/11 07:19:29;;;;;;;0.00;0.00;;;-1.00;99.90;;;;;;5006517;28;20394;-60
2022/01/11 07:21:56;;;;;;;0.00;0.00;;;-0.60;99.90;;;;;;5041020;28;20437;-60
2022/01/11 07:24:23;;;;;;;0.00;0.00;;;-0.70;99.90;;;;;;5041269;28;20059;-60
2022/01/11 07:26:49;;;;;;;0.00;0.00;;;-0.80;99.90;;;;;;5055841;28;20087;-60
2022/01/11 07:29:14;;;;;;;0.00;0.00;;;-0.90;99.90;;;;;;5055448;28;20076;-60
2022/01/11 07:31:42;;;;;;;0.00;0.00;;;-0.90;99.90;;;;;;5060471;28;20053;-62
2022/01/11 07:34:09;;;;;;;0.00;0.00;;;-0.90;99.90;;;;;;5059782;28;20052;-64
2022/01/11 07:36:35;;;;;;;0.20;0.20;;;-0.80;99.90;;;;;;5043296;28;20434;-61
2022/01/11 07:39:02;;;;;;;0.00;0.00;;;-0.90;99.90;;;;;;5060984;28;20430;-61
2022/01/11 07:41:28;;;;;;;0.10;0.10;;;-0.90;99.90;;;;;;5043095;28;20476;-60
2022/01/11 07:43:53;;;;;;;0.08;0.08;;;-0.90;99.90;;;;;;5060603;28;20044;-61
2022/01/11 07:46:19;;;;;;;0.10;0.10;;;-1.60;99.90;;;;;;5060938;28;20080;-61
2022/01/11 07:48:45;;;;;;;0.00;0.00;;;-0.90;99.90;;;;;;5059986;28;20517;-60
2022/01/11 07:51:11;;;;;;;0.00;0.00;;;-0.80;99.90;;;;;;5060356;28;20437;-60
2022/01/11 07:53:36;;;;;;;0.10;0.10;;;-0.80;99.90;;;;;;5042797;28;20559;-61
2022/01/11 07:56:03;;;;;;;0.43;0.43;;;-0.90;99.90;;;;;;5060532;28;20542;-62
2022/01/11 07:58:29;;;;;;;0.52;0.52;;;-0.80;99.90;;;;;;5060324;28;20460;-61
2022/01/11 08:00:55;;;;;;;1.17;1.08;;;-0.80;99.90;;;;;;5060296;28;20048;-61
2022/01/11 08:03:20;;;;;;;0.43;0.43;;;-0.80;99.90;;;;;;5059547;28;20047;-61
2022/01/11 08:05:46;;;;;;;0.00;0.00;;;-0.80;99.90;;;;;;5042742;28;20091;-60
2022/01/11 08:08:11;;;;;;;0.00;0.00;;;-0.90;99.90;;;;;;5060135;28;20040;-60
2022/01/11 08:10:37;;;;;;;1.95;1.85;;;-1.00;99.90;;;;;;5060172;28;20056;-63
2022/01/11 08:13:06;;;;;;;0.10;0.10;;;-0.90;99.90;;;;;;5059590;28;20445;-60
2022/01/11 08:15:35;;;;;;;0.38;0.38;;;-0.80;99.90;;;;;;5042890;28;20140;-60
2022/01/11 08:18:01;;;;;;;0.20;0.20;;;-0.80;99.90;;;;;;5041885;28;20131;-61
2022/01/11 08:20:27;;;;;;;0.00;0.00;;;-0.50;99.90;;;;;;5041725;28;20128;-61
2022/01/11 08:22:54;;;;;;;0.03;0.03;;;-0.70;99.90;;;;;;5060243;28;20048;-61
2022/01/11 08:25:19;;;;;;;0.00;0.00;;;-0.60;99.90;;;;;;5060131;28;20402;-61
2022/01/11 08:27:46;;;;;;;0.08;0.08;;;-0.70;99.90;;;;;;5054977;28;20045;-61
2022/01/11 08:30:12;;;;;;;0.00;0.00;;;-0.70;99.90;;;;;;5048709;28;20406;-61
2022/01/11 08:32:37;;;;;;;0.10;0.10;;;-0.70;99.90;;;;;;5021710;28;20231;-61
2022/01/11 08:35:04;;;;;;;0.10;0.10;;;-0.70;99.90;;;;;;5038884;28;20135;-61
2022/01/11 08:37:29;;;;;;;0.00;0.00;;;-0.60;99.90;;;;;;5021084;28;20178;-61
2022/01/11 08:39:55;;;;;;;0.00;0.00;;;1.30;99.90;;;;;;5021441;28;20617;-61
2022/01/11 08:42:21;;;;;;;0.15;0.15;;;-0.50;99.90;;;;;;5021359;28;20058;-61
2022/01/11 08:44:49;;;;;;;1.85;1.55;;;-0.60;99.90;;;;;;5037451;28;20138;-61
2022/01/11 08:47:16;;;;;;;0.00;0.00;;;-0.50;99.90;;;;;;5038808;28;20045;-61
2022/01/11 08:49:42;;;;;;;0.63;0.55;;;-0.50;99.90;;;;;;5038433;28;20055;-63
2022/01/11 08:52:09;;;;;;;0.00;0.00;;;-0.40;99.90;;;;;;5039466;28;20442;-65
2022/01/11 08:54:35;;;;;;;0.00;0.00;;;-0.60;99.90;;;;;;5020634;28;20122;-66
2022/01/11 08:57:01;;;;;;;0.70;0.70;;;-0.30;99.90;;;;;;5038115;28;20512;-65
2022/01/11 08:59:27;;;;;;;0.00;0.00;;;-0.30;99.90;;;;;;5021171;28;20052;-65
2022/01/11 09:01:56;;;;;;;0.00;0.00;;;-0.20;99.90;;;;;;5021168;28;20128;-65
2022/01/11 09:04:22;;;;;;;0.10;0.10;;;-0.20;99.90;;;;;;5037929;28;20143;-65
2022/01/11 09:06:49;;;;;;;0.10;0.10;;;-0.20;99.90;;;;;;5038853;28;20727;-65
2022/01/11 09:09:15;;;;;;;0.00;0.00;;;-0.20;99.90;;;;;;5038817;28;20106;-65
2022/01/11 09:11:42;;;;;;;0.00;0.00;;;-0.20;99.90;;;;;;5038866;28;20468;-65
2022/01/11 09:14:08;;;;;;;0.00;0.00;;;-0.20;99.90;;;;;;5038296;28;20053;-65
2022/01/11 09:16:34;;;;;;;1.65;1.60;;;-0.20;99.90;;;;;;5038668;28;20120;-65
2022/01/11 09:19:00;;;;;;;0.00;0.00;;;-0.20;99.90;;;;;;5038510;28;20636;-65
2022/01/11 09:21:25;;;;;;;1.50;1.40;;;-0.20;99.90;;;;;;5039040;28;20080;-64
2022/01/11 09:23:52;;;;;;;0.00;0.00;;;-0.10;99.90;;;;;;5037588;28;20049;-64
2022/01/11 09:26:18;;;;;;;0.55;0.55;;;0.60;99.90;;;;;;5038800;28;20037;-64
2022/01/11 09:28:44;;;;;;;0.10;0.10;;;-0.10;99.90;;;;;;5047415;28;20052;-64
2022/01/11 09:31:10;;;;;;;0.20;0.20;;;-0.10;99.90;;;;;;5037220;28;20119;-64
2022/01/11 09:33:36;;;;;;;1.45;1.35;;;-0.10;99.90;;;;;;5037655;28;20037;-65
2022/01/11 09:36:02;;;;;;;0.10;0.10;;;-0.10;99.90;;;;;;5039284;28;20051;-64
2022/01/11 09:38:29;;;;;;;1.52;1.10;;;-0.10;99.90;;;;;;5021039;28;20116;-65
2022/01/11 09:40:56;;;;;;;0.00;0.00;;;-0.10;99.90;;;;;;5020928;28;20084;-65
2022/01/11 09:43:26;;;;;;;0.25;0.25;;;-0.10;99.90;;;;;;5020039;28;20045;-64
2022/01/11 09:45:54;;;;;;;0.00;0.00;;;0.00;99.90;;;;;;5039044;28;20045;-63
2022/01/11 09:48:22;;;;;;;0.70;0.70;;;0.00;99.90;;;;;;5020050;28;20051;-65
2022/01/11 09:50:48;;;;;;;0.00;0.00;;;0.00;99.90;;;;;;5037774;28;20048;-65
2022/01/11 09:53:14;;;;;;;0.00;0.00;;;0.10;99.90;;;;;;5020548;28;20049;-65
2022/01/11 09:55:39;;;;;;;2.42;1.13;;;0.20;99.90;;;;;;5021235;28;20056;-65
2022/01/11 09:58:05;;;;;;;0.10;0.10;;;0.20;99.90;;;;;;5041874;28;20139;-65
2022/01/11 10:00:32;;;;;;;0.40;0.40;;;0.40;99.90;;;;;;5042262;28;20049;-64
2022/01/11 10:02:57;;;;;;;0.10;0.10;;;0.50;99.90;;;;;;5041801;28;20171;-65
2022/01/11 10:05:24;;;;;;;0.43;0.43;;;0.80;99.90;;;;;;5042113;28;20057;-61
2022/01/11 10:07:50;;;;;;;0.10;0.10;;;1.10;99.90;;;;;;5042613;28;20087;-64
2022/01/11 10:10:24;;;;;;;0.00;0.00;;;1.20;99.90;;;;;;5042235;28;20077;-64
2022/01/11 10:12:53;;;;;;;0.68;0.68;;;1.10;99.90;;;;;;5042348;28;20049;-61
2022/01/11 10:15:34;;;;;;;0.22;0.22;;;1.00;99.90;;;;;;5042602;28;20106;-61
2022/01/11 10:18:01;;;;;;;0.00;0.00;;;1.00;99.90;;;;;;5041924;28;20040;-63
2022/01/11 10:20:27;;;;;;;0.10;0.10;;;0.90;99.90;;;;;;5042114;28;20048;-62
2022/01/11 10:23:13;;;;;;;0.00;0.00;;;0.80;99.90;;;;;;5041608;28;20629;-63
2022/01/11 10:25:50;;;;;;;0.20;0.20;;;0.70;99.90;;;;;;5061764;28;20052;-63
2022/01/11 10:28:15;;;;;;;0.57;0.57;;;0.70;99.90;;;;;;5056393;28;20047;-63
2022/01/11 10:30:41;;;;;;;0.00;0.00;;;0.70;99.90;;;;;;5059553;28;20068;-63
2022/01/11 10:33:09;;;;;;;0.10;0.10;;;0.70;99.90;;;;;;5060597;28;20120;-64
2022/01/11 10:35:42;;;;;;;0.80;0.80;;;0.60;99.90;;;;;;5061251;28;20052;-62
2022/01/11 10:38:09;;;;;;;0.00;0.00;;;0.80;99.90;;;;;;5061323;28;20087;-62
2022/01/11 10:40:44;;;;;;;0.85;0.85;;;0.80;99.90;;;;;;5059657;28;20123;-62
2022/01/11 10:43:18;;;;;;;1.88;1.77;;;1.30;99.90;;;;;;5058375;28;20044;-63
2022/01/11 10:45:50;;;;;;;0.17;0.17;;;1.40;99.90;;;;;;5040077;28;20056;-64
2022/01/11 10:48:21;;;;;;;7.93;0.85;;;1.60;99.90;;;;;;5059201;28;20043;-63
2022/01/11 10:50:50;;;;;;;0.15;0.15;;;1.50;99.90;;;;;;5059789;28;20052;-63
2022/01/11 10:53:17;;;;;;;0.10;0.10;;;1.40;99.90;;;;;;5055057;28;20066;-64
2022/01/11 10:55:48;;;;;;;0.00;0.00;;;1.40;99.90;;;;;;5056939;28;20046;-63
2022/01/11 10:58:14;;;;;;;0.00;0.00;;;1.90;99.90;;;;;;5058803;28;20590;-64
2022/01/11 11:00:41;;;;;;;0.00;0.00;;;2.20;99.90;;;;;;5025930;28;20044;-64
2022/01/11 11:03:10;;;;;;;0.30;0.30;;;2.30;99.90;;;;;;5058343;28;20049;-64
2022/01/11 11:05:56;;;;;;;1.65;1.23;;;3.10;99.90;;;;;;5059339;28;20056;-63
2022/01/11 11:08:27;;;;;;;0.32;0.32;;;2.20;99.90;;;;;;5060022;28;20059;-62
2022/01/11 11:10:56;;;;;;;0.00;0.00;;;2.00;99.90;;;;;;5042739;28;20045;-65
2022/01/11 11:13:42;;;;;;;0.00;0.00;;;2.20;99.90;;;;;;5061487;28;20084;-61
2022/01/11 11:16:12;;;;;;;0.55;0.55;;;2.30;99.90;;;;;;5061395;28;20550;-63
2022/01/11 11:18:53;;;;;;;0.35;0.35;;;2.80;99.90;;;;;;5060640;28;20044;-63
2022/01/11 11:21:23;;;;;;;0.25;0.25;;;3.30;99.90;;;;;;5061494;28;20058;-61
2022/01/11 11:23:55;;;;;;;0.00;0.00;;;3.60;99.90;;;;;;5060579;28;20044;-63
2022/01/11 11:26:23;;;;;;;0.10;0.10;;;3.40;99.90;;;;;;5061042;28;20041;-61
2022/01/11 11:28:49;;;;;;;0.00;0.00;;;3.40;99.90;;;;;;5055052;28;20049;-62
2022/01/11 11:31:15;;;;;;;0.00;0.00;;;3.40;99.90;;;;;;5039484;28;20132;-62
2022/01/11 11:33:42;;;;;;;0.00;0.00;;;3.80;99.90;;;;;;5040098;28;20040;-62
2022/01/11 11:36:12;;;;;;;0.00;0.00;;;3.90;99.90;;;;;;5040854;28;20659;-62
2022/01/11 11:39:00;;;;;;;0.15;0.15;;;4.10;99.90;;;;;;5023511;28;20450;-62
2022/01/11 11:41:27;;;;;;;0.17;0.17;;;3.90;99.90;;;;;;5022706;28;20052;-61
2022/01/11 11:44:11;;;;;;;0.15;0.15;;;4.00;99.90;;;;;;5042268;28;20056;-62
2022/01/11 11:46:47;;;;;;;0.00;0.00;;;4.00;99.90;;;;;;5041186;28;20044;-67
2022/01/11 11:49:15;;;;;;;0.00;0.00;;;3.80;99.90;;;;;;5058146;28;20094;-65
2022/01/11 11:51:42;;;;;;;0.13;0.13;;;3.70;99.90;;;;;;5044169;28;20041;-62
2022/01/11 11:54:13;;;;;;;0.00;0.00;;;3.70;99.90;;;;;;5022215;28;20077;-63
2022/01/11 11:56:43;;;;;;;0.00;0.00;;;3.50;99.90;;;;;;5036866;28;20509;-64
2022/01/11 11:59:09;;;;;;;0.10;0.10;;;3.40;99.90;;;;;;5060454;28;20051;-64
2022/01/11 12:01:46;;;;;;;0.00;0.00;;;3.20;99.90;;;;;;5041595;28;20052;-64
2022/01/11 12:04:14;;;;;;;0.00;0.00;;;3.30;99.90;;;;;;5059988;28;20088;-65
2022/01/11 12:06:40;;;;;;;0.00;0.00;;;3.30;99.90;;;;;;5042732;28;20044;-65
2022/01/11 12:09:11;;;;;;;0.15;0.15;;;3.40;99.90;;;;;;5059954;28;20048;-64
2022/01/11 12:11:47;;;;;;;1.38;1.27;;;3.40;99.90;;;;;;5042453;28;20518;-64
2022/01/11 12:14:30;;;;;;;0.03;0.03;;;3.40;99.90;;;;;;5060357;28;20474;-65
2022/01/11 12:16:57;;;;;;;0.00;0.00;;;3.40;99.90;;;;;;5060167;28;20557;-64
2022/01/11 12:19:44;;;;;;;0.10;0.10;;;3.40;99.90;;;;;;5059645;28;20049;-63
2022/01/11 12:22:09;;;;;;;0.17;0.17;;;3.40;99.90;;;;;;5059608;28;20040;-62
2022/01/11 12:24:40;;;;;;;2.47;2.28;;;3.30;99.90;;;;;;5060340;28;20132;-62
2022/01/11 12:27:10;;;;;;;2.05;0.57;;;3.20;99.90;;;;;;5052795;28;20044;-61
2022/01/11 12:29:37;;;;;;;0.00;0.00;;;3.30;99.90;;;;;;5052369;28;20067;-61
2022/01/11 12:32:08;;;;;;;0.10;0.10;;;3.20;99.90;;;;;;5052938;28;20476;-61
2022/01/11 12:34:45;;;;;;;0.90;0.90;;;3.30;99.90;;;;;;5058863;28;20044;-61
2022/01/11 12:37:26;;;;;;;0.00;0.00;;;3.30;99.90;;;;;;5058858;28;20037;-61
2022/01/11 12:40:14;;;;;;;0.00;0.00;;;3.30;99.90;;;;;;5041795;28;20060;-62
2022/01/11 12:43:01;;;;;;;0.20;0.20;;;3.20;99.90;;;;;;5058818;28;20079;-61
2022/01/11 12:46:01;;;;;;;0.00;0.00;;;3.20;99.90;;;;;;5059487;28;20044;-61
2022/01/11 12:48:45;;;;;;;0.00;0.00;;;3.30;99.90;;;;;;5058628;28;20125;-62
2022/01/11 12:51:22;;;;;;;0.10;0.10;;;4.80;99.90;;;;;;5059319;28;20158;-62
2022/01/11 12:53:49;;;;;;;0.80;0.63;;;3.40;99.90;;;;;;5059161;28;20127;-62